createdAt,value
2022-09-18T00:01:20.463Z,98241.34
2022-09-18T00:03:47.635Z,98238.28
2022-09-18T00:06:26.536Z,98243.16
2022-09-18T00:08:54.908Z,98230.88
2022-09-18T00:11:23.572Z,98233.19
2022-09-18T00:13:50.452Z,98230.13
2022-09-18T00:16:20.154Z,98227.44
2022-09-18T00:18:48.011Z,98220.50
2022-09-18T00:21:20.584Z,98223.31
2022-09-18T00:23:47.040Z,98209.84
2022-09-18T00:26:15.489Z,98222.31
2022-09-18T00:28:42.085Z,98235.84
2022-09-18T00:31:11.335Z,98226.38
2022-09-18T00:33:39.980Z,98227.19
2022-09-18T00:36:09.500Z,98217.56
2022-09-18T00:38:36.496Z,98227.19
2022-09-18T00:41:06.026Z,98216.56
2022-09-18T00:43:34.367Z,98214.91
2022-09-18T00:46:05.599Z,98211.25
2022-09-18T00:48:38.313Z,98224.75
2022-09-18T00:51:04.944Z,98225.78
2022-09-18T00:53:32.841Z,98219.66
2022-09-18T00:56:00.944Z,98217.63
2022-09-18T00:58:27.476Z,98221.47
2022-09-18T01:00:55.394Z,98219.66
2022-09-18T01:03:21.903Z,98218.81
2022-09-18T01:06:10.731Z,98201.28
2022-09-18T01:09:11.026Z,98221.31
2022-09-18T01:11:53.585Z,98223.78
2022-09-18T01:14:36.730Z,98216.00
2022-09-18T01:17:15.703Z,98215.41
2022-09-18T01:20:03.455Z,98218.47
2022-09-18T01:23:00.986Z,98216.03
2022-09-18T01:25:30.954Z,98208.44
2022-09-18T01:28:14.292Z,98181.13
2022-09-18T01:30:43.712Z,98206.66
2022-09-18T01:33:25.338Z,98213.56
2022-09-18T01:35:55.119Z,98217.63
2022-09-18T01:38:28.842Z,98222.97
2022-09-18T01:40:58.317Z,98219.25
2022-09-18T01:43:28.706Z,98217.84
2022-09-18T01:46:00.056Z,98188.50
2022-09-18T01:48:34.317Z,98210.72
2022-09-18T01:51:21.313Z,98218.13
2022-09-18T01:54:04.511Z,98220.31
2022-09-18T01:56:36.438Z,98207.84
2022-09-18T01:59:11.761Z,98222.38
2022-09-18T02:01:59.421Z,98219.72
2022-09-18T02:04:30.734Z,98212.78
2022-09-18T02:07:14.146Z,98217.47
2022-09-18T02:09:44.480Z,98193.81
2022-09-18T02:12:18.904Z,98214.63
2022-09-18T02:14:49.815Z,98216.63
2022-09-18T02:17:56.542Z,98201.09
2022-09-18T02:20:31.103Z,98207.41
2022-09-18T02:23:02.562Z,98223.59
2022-09-18T02:25:37.888Z,98215.44
2022-09-18T02:28:06.846Z,98215.81
2022-09-18T02:30:34.386Z,98212.97
2022-09-18T02:33:00.830Z,98194.19
2022-09-18T02:35:39.790Z,98208.88
2022-09-18T02:38:28.921Z,98209.06
2022-09-18T02:41:14.774Z,98203.75
2022-09-18T02:43:55.774Z,98199.03
2022-09-18T02:46:28.285Z,98209.06
2022-09-18T02:49:34.796Z,98194.94
2022-09-18T02:52:14.697Z,98200.03
2022-09-18T02:54:41.203Z,98203.56
2022-09-18T02:57:15.291Z,98200.25
2022-09-18T02:59:49.240Z,98209.06
2022-09-18T03:02:19.832Z,98210.91
2022-09-18T03:04:46.876Z,98208.88
2022-09-18T03:07:23.073Z,98203.13
2022-09-18T03:09:50.871Z,98200.91
2022-09-18T03:12:18.445Z,98194.34
2022-09-18T03:14:47.914Z,98202.31
2022-09-18T03:17:14.482Z,98200.03
2022-09-18T03:19:44.687Z,98197.97
2022-09-18T03:22:12.842Z,98196.53
2022-09-18T03:24:39.334Z,98201.44
2022-09-18T03:27:07.081Z,98200.84
2022-09-18T03:29:33.860Z,98197.53
2022-09-18T03:32:01.873Z,98198.94
2022-09-18T03:34:28.892Z,98200.59
2022-09-18T03:36:55.394Z,98200.16
2022-09-18T03:39:21.888Z,98196.47
2022-09-18T03:41:50.585Z,98203.00
2022-09-18T03:44:17.197Z,98198.47
2022-09-18T03:46:45.206Z,98198.25
2022-09-18T03:49:11.810Z,98195.81
2022-09-18T03:51:40.076Z,98195.22
2022-09-18T03:54:07.397Z,98180.13
2022-09-18T03:56:53.780Z,98193.09
2022-09-18T03:59:49.709Z,98197.66
2022-09-18T04:02:34.883Z,98199.44
2022-09-18T04:05:19.833Z,98181.09
2022-09-18T04:08:09.414Z,98197.84
2022-09-18T04:10:54.548Z,98203.16
2022-09-18T04:13:20.972Z,98197.88
2022-09-18T04:15:50.235Z,98115.59
2022-09-18T04:18:17.489Z,98211.31
2022-09-18T04:20:44.324Z,98202.94
2022-09-18T04:23:14.332Z,98184.78
2022-09-18T04:25:44.106Z,98204.41
2022-09-18T04:28:11.871Z,98211.56
2022-09-18T04:30:42.620Z,98210.53
2022-09-18T04:33:09.343Z,98197.50
2022-09-18T04:35:35.731Z,98204.78
2022-09-18T04:38:02.246Z,98203.16
2022-09-18T04:40:29.432Z,98190.47
2022-09-18T04:42:56.173Z,98187.03
2022-09-18T04:45:22.637Z,98187.22
2022-09-18T04:47:50.982Z,98191.72
2022-09-18T04:50:19.589Z,98200.34
2022-09-18T04:53:04.526Z,98196.03
2022-09-18T04:55:32.845Z,98101.50
2022-09-18T04:57:59.913Z,98097.22
2022-09-18T05:00:28.654Z,98189.47
2022-09-18T05:02:57.894Z,98194.56
2022-09-18T05:05:28.195Z,98192.72
2022-09-18T05:07:57.697Z,98192.13
2022-09-18T05:10:24.612Z,98189.03
2022-09-18T05:12:51.133Z,98194.34
2022-09-18T05:15:18.745Z,98196.34
2022-09-18T05:17:47.516Z,98196.94
2022-09-18T05:20:15.197Z,98195.97
2022-09-18T05:22:46.962Z,98200.44
2022-09-18T05:25:20.566Z,98197.19
2022-09-18T05:27:54.685Z,98208.66
2022-09-18T05:30:24.694Z,98213.97
2022-09-18T05:33:05.512Z,98211.50
2022-09-18T05:35:34.235Z,98210.25
2022-09-18T05:38:01.517Z,98207.81
2022-09-18T05:40:33.251Z,98208.03
2022-09-18T05:43:01.300Z,98213.97
2022-09-18T05:45:27.681Z,98208.66
2022-09-18T05:47:59.280Z,98181.16
2022-09-18T05:50:28.178Z,98219.28
2022-09-18T05:53:18.626Z,98211.47
2022-09-18T05:56:01.549Z,98213.97
2022-09-18T05:58:30.164Z,98211.91
2022-09-18T06:00:58.624Z,98216.81
2022-09-18T06:03:32.285Z,98205.34
2022-09-18T06:06:00.297Z,98230.91
2022-09-18T06:08:26.918Z,98219.44
2022-09-18T06:10:54.680Z,98207.41
2022-09-18T06:13:21.409Z,98234.59
2022-09-18T06:15:54.894Z,98224.94
2022-09-18T06:18:33.278Z,98227.63
2022-09-18T06:21:01.605Z,98236.03
2022-09-18T06:23:31.002Z,98234.59
2022-09-18T06:26:09.401Z,98227.81
2022-09-18T06:28:39.678Z,98231.91
2022-09-18T06:31:06.897Z,98242.97
2022-09-18T06:33:53.839Z,98241.91
2022-09-18T06:36:20.528Z,98238.00
2022-09-18T06:38:59.013Z,98236.97
2022-09-18T06:41:25.878Z,98240.81
2022-09-18T06:43:54.105Z,98240.41
2022-09-18T06:46:40.808Z,98239.97
2022-09-18T06:49:16.558Z,98245.28
2022-09-18T06:51:46.115Z,98246.03
2022-09-18T06:54:15.691Z,98242.72
2022-09-18T06:56:42.150Z,98242.88
2022-09-18T06:59:11.843Z,98239.47
2022-09-18T07:01:39.432Z,98241.66
2022-09-18T07:04:13.337Z,98229.09
2022-09-18T07:06:45.599Z,98241.22
2022-09-18T07:09:13.032Z,98240.66
2022-09-18T07:11:58.329Z,98242.13
2022-09-18T07:14:33.615Z,98245.09
2022-09-18T07:17:12.998Z,98220.56
2022-09-18T07:19:41.818Z,98230.34
2022-09-18T07:22:09.334Z,98247.47
2022-09-18T07:24:41.331Z,98250.81
2022-09-18T07:27:08.317Z,98249.69
2022-09-18T07:29:36.258Z,98255.97
2022-09-18T07:32:02.698Z,98262.56
2022-09-18T07:34:31.407Z,98257.13
2022-09-18T07:36:58.310Z,98256.53
2022-09-18T07:39:26.228Z,98253.56
2022-09-18T07:42:15.321Z,98186.47
2022-09-18T07:44:49.366Z,98252.72
2022-09-18T07:47:15.820Z,98258.28
2022-09-18T07:49:43.193Z,98259.69
2022-09-18T07:52:10.562Z,98251.88
2022-09-18T07:54:44.631Z,98252.31
2022-09-18T07:57:32.471Z,98235.34
2022-09-18T08:00:11.858Z,98254.69
2022-09-18T08:02:48.042Z,98267.63
2022-09-18T08:05:30.675Z,98264.94
2022-09-18T08:08:07.877Z,98223.09
2022-09-18T08:10:52.177Z,98275.63
2022-09-18T08:13:44.686Z,98263.88
2022-09-18T08:16:40.324Z,98275.28
2022-09-18T08:19:15.872Z,98267.38
2022-09-18T08:21:58.190Z,98262.41
2022-09-18T08:24:24.686Z,98257.34
2022-09-18T08:26:51.136Z,98275.13
2022-09-18T08:29:21.136Z,98265.16
2022-09-18T08:31:52.469Z,98259.13
2022-09-18T08:34:19.267Z,98261.47
2022-09-18T08:36:45.726Z,98269.97
2022-09-18T08:39:21.130Z,98262.91
2022-09-18T08:42:26.195Z,98259.72
2022-09-18T08:44:59.481Z,98277.53
2022-09-18T08:47:33.319Z,98278.56
2022-09-18T08:50:24.530Z,98271.63
2022-09-18T08:53:03.934Z,98255.31
2022-09-18T08:55:42.802Z,98257.09
2022-09-18T08:58:42.997Z,98248.38
2022-09-18T09:01:15.946Z,98250.28
2022-09-18T09:04:33.130Z,98248.69
2022-09-18T09:07:21.516Z,98252.41
2022-09-18T09:09:58.446Z,98248.19
2022-09-18T09:12:45.795Z,98253.78
2022-09-18T09:15:45.381Z,98257.06
2022-09-18T09:18:18.556Z,98256.25
2022-09-18T09:20:57.795Z,98262.31
2022-09-18T09:23:52.182Z,98267.66
2022-09-18T09:26:37.999Z,98263.09
2022-09-18T09:29:41.693Z,98265.63
2022-09-18T09:32:42.968Z,98260.94
2022-09-18T09:35:44.792Z,98258.94
2022-09-18T09:38:53.118Z,98248.72
2022-09-18T09:41:28.963Z,98254.03
2022-09-18T09:44:28.961Z,98250.88
2022-09-18T09:47:15.453Z,98248.81
2022-09-18T09:50:23.912Z,98235.78
2022-09-18T09:52:56.943Z,98238.88
2022-09-18T09:55:33.069Z,98232.09
2022-09-18T09:58:09.777Z,98229.81
2022-09-18T10:00:57.754Z,98221.50
2022-09-18T10:04:08.862Z,98219.66
2022-09-18T10:06:59.234Z,98224.63
2022-09-18T10:09:45.410Z,98223.63
2022-09-18T10:12:26.813Z,98228.22
2022-09-18T10:15:16.558Z,98211.78
2022-09-18T10:17:45.411Z,98211.94
2022-09-18T10:20:29.024Z,98221.47
2022-09-18T10:23:02.904Z,98195.56
2022-09-18T10:25:38.600Z,98220.88
2022-09-18T10:28:05.178Z,98210.69
2022-09-18T10:30:32.255Z,98210.69
2022-09-18T10:33:00.009Z,98216.13
2022-09-18T10:35:44.227Z,98203.50
2022-09-18T10:38:34.048Z,98210.56
2022-09-18T10:41:18.152Z,98198.09
2022-09-18T10:44:19.094Z,98209.00
2022-09-18T10:47:07.991Z,98204.94
2022-09-18T10:49:40.792Z,98200.69
2022-09-18T10:52:21.883Z,98200.44
2022-09-18T10:55:05.073Z,98203.31
2022-09-18T10:57:34.764Z,98211.13
2022-09-18T11:00:25.538Z,98205.97
2022-09-18T11:03:05.746Z,98206.56
2022-09-18T11:05:37.697Z,98206.13
2022-09-18T11:08:13.519Z,98169.38
2022-09-18T11:10:40.474Z,98188.88
2022-09-18T11:13:07.042Z,98191.59
2022-09-18T11:15:52.893Z,98189.22
2022-09-18T11:18:20.035Z,98208.25
2022-09-18T11:20:47.634Z,98181.06
2022-09-18T11:23:28.910Z,98188.25
2022-09-18T11:26:17.181Z,98187.34
2022-09-18T11:28:59.751Z,98190.25
2022-09-18T11:31:37.557Z,98190.34
2022-09-18T11:34:06.518Z,98186.06
2022-09-18T11:36:40.817Z,98193.13
2022-09-18T11:39:15.009Z,98180.50
2022-09-18T11:41:44.231Z,98165.25
2022-09-18T11:44:24.556Z,98172.41
2022-09-18T11:47:22.338Z,98176.88
2022-09-18T11:49:55.410Z,98165.06
2022-09-18T11:52:29.203Z,98162.88
2022-09-18T11:55:09.374Z,98174.03
2022-09-18T11:57:41.826Z,98163.81
2022-09-18T12:00:21.513Z,98157.75
2022-09-18T12:03:24.337Z,98162.53
2022-09-18T12:05:58.392Z,98163.97
2022-09-18T12:08:51.456Z,98174.88
2022-09-18T12:11:33.958Z,98156.47
2022-09-18T12:14:17.224Z,98165.53
2022-09-18T12:17:15.905Z,98159.06
2022-09-18T12:19:49.163Z,98159.81
2022-09-18T12:22:24.677Z,98157.41
2022-09-18T12:24:51.319Z,98156.28
2022-09-18T12:27:38.150Z,98156.38
2022-09-18T12:30:11.306Z,98158.59
2022-09-18T12:32:41.789Z,98150.50
2022-09-18T12:35:26.177Z,98150.56
2022-09-18T12:38:13.152Z,98154.06
2022-09-18T12:41:04.718Z,98148.53
2022-09-18T12:43:47.204Z,98144.31
2022-09-18T12:46:44.754Z,98144.31
2022-09-18T12:49:17.174Z,98140.59
2022-09-18T12:51:55.487Z,98148.06
2022-09-18T12:54:52.207Z,98148.28
2022-09-18T12:58:00.298Z,98142.25
2022-09-18T13:00:28.140Z,98139.94
2022-09-18T13:03:02.184Z,98137.19
2022-09-18T13:05:35.210Z,98123.31
2022-09-18T13:08:15.108Z,98131.19
2022-09-18T13:10:44.594Z,98125.03
2022-09-18T13:13:17.635Z,98122.13
2022-09-18T13:15:59.393Z,98115.81
2022-09-18T13:18:52.850Z,98113.41
2022-09-18T13:21:31.001Z,98093.28
2022-09-18T13:23:59.050Z,98091.22
2022-09-18T13:26:30.490Z,98078.31
2022-09-18T13:28:56.897Z,98081.34
2022-09-18T13:31:32.144Z,98082.22
2022-09-18T13:34:18.413Z,98084.06
2022-09-18T13:36:46.760Z,98086.88
2022-09-18T13:39:22.194Z,98076.72
2022-09-18T13:41:54.458Z,98086.44
2022-09-18T13:44:24.838Z,98073.03
2022-09-18T13:46:54.898Z,98079.44
2022-09-18T13:49:31.893Z,98084.06
2022-09-18T13:52:35.403Z,98080.69
2022-09-18T13:55:25.203Z,98072.72
2022-09-18T13:58:12.154Z,98072.91
2022-09-18T14:00:40.750Z,98071.28
2022-09-18T14:03:07.169Z,98065.25
2022-09-18T14:05:36.317Z,98073.53
2022-09-18T14:08:24.092Z,98078.16
2022-09-18T14:11:22.058Z,98073.09
2022-09-18T14:13:59.069Z,98047.69
2022-09-18T14:16:32.807Z,98058.94
2022-09-18T14:19:07.250Z,98034.16
2022-09-18T14:21:40.426Z,98065.28
2022-09-18T14:24:44.597Z,98062.69
2022-09-18T14:27:31.770Z,98014.88
2022-09-18T14:30:01.930Z,98065.16
2022-09-18T14:32:28.866Z,98066.63
2022-09-18T14:35:19.498Z,98065.97
2022-09-18T14:37:46.223Z,98056.06
2022-09-18T14:40:24.633Z,98059.28
2022-09-18T14:42:51.499Z,98063.56
2022-09-18T14:45:29.964Z,98057.63
2022-09-18T14:47:58.121Z,98064.84
2022-09-18T14:50:32.586Z,98060.94
2022-09-18T14:53:02.361Z,98060.94
2022-09-18T14:55:36.268Z,98062.50
2022-09-18T14:58:07.298Z,98059.25
2022-09-18T15:00:36.838Z,98054.66
2022-09-18T15:03:19.397Z,98055.19
2022-09-18T15:05:50.099Z,98062.28
2022-09-18T15:08:21.684Z,98051.72
2022-09-18T15:10:53.060Z,98055.28
2022-09-18T15:13:21.741Z,98038.81
2022-09-18T15:16:01.334Z,98045.31
2022-09-18T15:18:29.664Z,98033.88
2022-09-18T15:20:58.819Z,98032.16
2022-09-18T15:23:32.329Z,98026.41
2022-09-18T15:26:13.261Z,98012.38
2022-09-18T15:28:43.139Z,98023.63
2022-09-18T15:31:11.688Z,97994.44
2022-09-18T15:33:56.255Z,98025.19
2022-09-18T15:36:36.015Z,98022.59
2022-09-18T15:39:05.883Z,98023.34
2022-09-18T15:41:38.439Z,97961.31
2022-09-18T15:44:05.917Z,98013.94
2022-09-18T15:46:36.018Z,97987.97
2022-09-18T15:49:33.836Z,98012.63
2022-09-18T15:52:00.615Z,98008.88
2022-09-18T15:54:27.685Z,97985.19
2022-09-18T15:57:00.891Z,97987.16
2022-09-18T15:59:32.349Z,98000.44
2022-09-18T16:02:04.694Z,97989.81
2022-09-18T16:04:33.112Z,97997.19
2022-09-18T16:07:21.519Z,98001.59
2022-09-18T16:09:49.320Z,98006.06
2022-09-18T16:12:38.246Z,97993.78
2022-09-18T16:15:08.626Z,98000.44
2022-09-18T16:17:37.229Z,97999.81
2022-09-18T16:20:29.067Z,97990.47
2022-09-18T16:23:04.126Z,97988.38
2022-09-18T16:25:32.259Z,97995.59
2022-09-18T16:27:59.416Z,97992.34
2022-09-18T16:30:27.311Z,97990.91
2022-09-18T16:33:01.766Z,97991.53
2022-09-18T16:35:28.210Z,97986.94
2022-09-18T16:37:55.677Z,97983.09
2022-09-18T16:40:27.622Z,97977.44
2022-09-18T16:42:58.891Z,97975.97
2022-09-18T16:45:26.907Z,97975.47
2022-09-18T16:47:58.747Z,97973.03
2022-09-18T16:50:27.595Z,97976.06
2022-09-18T16:52:54.821Z,97979.22
2022-09-18T16:55:22.999Z,97986.16
2022-09-18T16:57:50.545Z,97982.63
2022-09-18T17:00:17.110Z,97973.22
2022-09-18T17:02:43.882Z,97948.06
2022-09-18T17:05:10.369Z,97977.88
2022-09-18T17:07:36.818Z,97975.88
2022-09-18T17:10:05.383Z,97965.91
2022-09-18T17:12:31.746Z,97975.00
2022-09-18T17:14:58.194Z,97970.94
2022-09-18T17:17:24.587Z,97974.31
2022-09-18T17:19:51.993Z,97971.16
2022-09-18T17:22:22.441Z,97968.81
2022-09-18T17:24:49.381Z,97982.69
2022-09-18T17:27:15.756Z,97969.78
2022-09-18T17:29:43.531Z,97978.38
2022-09-18T17:32:09.972Z,97982.84
2022-09-18T17:34:36.350Z,97975.03
2022-09-18T17:37:02.737Z,97986.00
2022-09-18T17:39:29.129Z,97982.66
2022-09-18T17:41:56.280Z,97983.47
2022-09-18T17:44:24.360Z,97961.47
2022-09-18T17:46:52.686Z,97978.75
2022-09-18T17:49:20.418Z,97954.06
2022-09-18T17:51:47.513Z,97978.00
2022-09-18T17:54:14.073Z,97977.13
2022-09-18T17:56:40.817Z,97972.59
2022-09-18T17:59:11.302Z,97974.72
2022-09-18T18:01:42.984Z,97966.50
2022-09-18T18:04:09.524Z,97966.41
2022-09-18T18:06:36.921Z,97972.50
2022-09-18T18:09:06.058Z,97967.97
2022-09-18T18:11:33.006Z,97972.06
2022-09-18T18:14:00.216Z,97986.34
2022-09-18T18:16:30.619Z,97976.31
2022-09-18T18:19:00.799Z,97982.16
2022-09-18T18:21:29.056Z,97969.47
2022-09-18T18:24:05.315Z,97981.47
2022-09-18T18:26:32.279Z,97992.16
2022-09-18T18:28:59.248Z,97991.47
2022-09-18T18:31:25.923Z,97991.38
2022-09-18T18:33:54.376Z,97988.81
2022-09-18T18:36:26.585Z,97987.59
2022-09-18T18:38:56.234Z,97975.34
2022-09-18T18:41:24.826Z,97989.00
2022-09-18T18:43:55.377Z,97997.91
2022-09-18T18:46:26.845Z,97988.16
2022-09-18T18:49:01.672Z,97986.75
2022-09-18T18:51:37.122Z,97990.34
2022-09-18T18:54:05.304Z,97995.38
2022-09-18T18:56:37.433Z,97980.44
2022-09-18T18:59:06.134Z,97996.66
2022-09-18T19:01:33.134Z,97992.25
2022-09-18T19:04:02.834Z,97983.25
2022-09-18T19:06:30.034Z,98006.31
2022-09-18T19:09:01.436Z,97991.47
2022-09-18T19:11:31.555Z,98007.38
2022-09-18T19:13:59.876Z,98001.13
2022-09-18T19:16:32.025Z,98010.19
2022-09-18T19:19:00.236Z,98007.50
2022-09-18T19:21:28.268Z,98004.59
2022-09-18T19:23:59.088Z,98009.94
2022-09-18T19:26:27.959Z,98018.06
2022-09-18T19:28:57.112Z,98015.97
2022-09-18T19:31:24.644Z,98017.13
2022-09-18T19:33:52.457Z,98014.25
2022-09-18T19:36:21.138Z,98015.31
2022-09-18T19:38:52.095Z,98011.69
2022-09-18T19:41:41.076Z,98014.03
2022-09-18T19:44:22.874Z,98013.56
2022-09-18T19:46:50.071Z,98019.34
2022-09-18T19:49:19.541Z,98019.56
2022-09-18T19:51:46.859Z,98019.47
2022-09-18T19:54:13.626Z,98017.97
2022-09-18T19:56:46.750Z,98014.34
2022-09-18T19:59:14.169Z,98010.06
2022-09-18T20:01:40.839Z,98012.75
2022-09-18T20:04:07.583Z,98013.66
2022-09-18T20:06:34.798Z,98014.47
2022-09-18T20:09:01.972Z,98013.66
2022-09-18T20:11:28.433Z,98027.81
2022-09-18T20:13:55.180Z,98029.69
2022-09-18T20:16:22.552Z,98020.88
2022-09-18T20:18:49.648Z,98026.19
2022-09-18T20:21:18.321Z,98018.19
2022-09-18T20:23:45.482Z,98000.44
2022-09-18T20:26:15.966Z,98023.53
2022-09-18T20:28:42.948Z,98030.38
2022-09-18T20:31:11.842Z,98040.34
2022-09-18T20:33:38.485Z,98036.88
2022-09-18T20:36:07.978Z,98046.97
2022-09-18T20:38:36.892Z,98045.22
2022-09-18T20:41:07.147Z,98046.78
2022-09-18T20:43:35.173Z,98050.72
2022-09-18T20:46:04.471Z,98060.22
2022-09-18T20:48:36.644Z,98064.75
2022-09-18T20:51:08.986Z,98066.03
2022-09-18T20:53:38.176Z,98053.88
2022-09-18T20:56:09.424Z,98071.34
2022-09-18T20:58:36.777Z,98072.47
2022-09-18T21:01:13.794Z,98082.00
2022-09-18T21:03:42.994Z,98079.38
2022-09-18T21:06:23.266Z,98089.34
2022-09-18T21:08:53.293Z,98082.53
2022-09-18T21:11:25.682Z,98088.84
2022-09-18T21:13:54.537Z,98085.47
2022-09-18T21:16:22.296Z,98086.84
2022-09-18T21:18:49.856Z,98087.97
2022-09-18T21:21:17.274Z,98094.78
2022-09-18T21:24:02.498Z,98124.28
2022-09-18T21:26:41.539Z,98178.41
2022-09-18T21:29:12.848Z,98170.19
2022-09-18T21:31:42.559Z,98171.44
2022-09-18T21:34:23.448Z,98171.00
2022-09-18T21:36:52.847Z,98170.78
2022-09-18T21:39:19.319Z,98168.97
2022-09-18T21:41:46.566Z,98176.50
2022-09-18T21:44:21.038Z,98179.81
2022-09-18T21:46:47.619Z,98182.00
2022-09-18T21:49:15.975Z,98174.41
2022-09-18T21:51:43.077Z,98172.06
2022-09-18T21:54:15.104Z,98163.81
2022-09-18T21:56:42.397Z,98178.72
2022-09-18T21:59:09.980Z,98148.06
2022-09-18T22:01:38.054Z,98182.50
2022-09-18T22:04:07.118Z,98174.09
2022-09-18T22:06:40.818Z,98176.28
2022-09-18T22:09:18.867Z,98175.28
2022-09-18T22:11:47.250Z,98182.41
2022-09-18T22:14:16.460Z,98181.53
2022-09-18T22:16:45.516Z,98173.81
2022-09-18T22:19:12.144Z,98147.53
2022-09-18T22:21:40.611Z,98159.16
2022-09-18T22:24:10.688Z,98182.78
2022-09-18T22:26:43.004Z,98200.56
2022-09-18T22:29:15.805Z,98172.19
2022-09-18T22:31:42.411Z,98205.06
2022-09-18T22:34:08.869Z,98197.91
2022-09-18T22:36:35.260Z,98206.91
2022-09-18T22:39:01.650Z,98212.63
2022-09-18T22:41:28.062Z,98224.44
2022-09-18T22:43:56.137Z,98215.66
2022-09-18T22:46:24.749Z,98218.13
2022-09-18T22:48:51.898Z,98217.06
2022-09-18T22:51:20.738Z,98218.13
2022-09-18T22:53:50.380Z,98215.53
2022-09-18T22:56:18.327Z,98216.72
2022-09-18T22:58:45.374Z,98212.28
2022-09-18T23:01:18.158Z,98225.34
2022-09-18T23:03:45.971Z,98229.84
2022-09-18T23:06:13.700Z,98237.81
2022-09-18T23:08:40.372Z,98244.66
2022-09-18T23:11:13.493Z,98221.44
2022-09-18T23:13:42.256Z,98235.13
2022-09-18T23:16:12.948Z,98234.53
2022-09-18T23:18:40.554Z,98231.22
2022-09-18T23:21:13.880Z,98228.16
2022-09-18T23:23:42.630Z,98231.66
2022-09-18T23:26:14.793Z,98229.63
2022-09-18T23:28:45.815Z,98228.41
2022-09-18T23:31:18.038Z,98236.19
2022-09-18T23:33:48.736Z,98242.34
2022-09-18T23:36:21.044Z,98234.19
2022-09-18T23:38:48.392Z,98237.06
2022-09-18T23:41:16.910Z,98242.63
2022-09-18T23:43:49.896Z,98224.84
2022-09-18T23:46:17.194Z,98239.13
2022-09-18T23:48:44.308Z,98212.22
2022-09-18T23:51:12.365Z,98240.16
2022-09-18T23:53:40.368Z,98236.66
2022-09-18T23:56:12.460Z,98239.31
2022-09-18T23:58:40.032Z,98254.22
